Savanna Army Depot, Illinois
Current Conditions -  °F | °C
As of 6:55 PM on Saturday 22 Nov 2014 (Local Time) from KSFY Reporting Station
Overcast Overcast  
Wind Chill: 45°   Ceiling: 1800
Heat Index: 49°   Visibility: 7mi
Dew Point: 46°   Wind: 7mph
Humidity: 91%   Direction: 150°SSE
Pressure: 29.8"   Gusts: NA
Location:  42.1463°N, 90.1589°W
Report Text: KSFY 230055Z AUTO 15006KT 7SM OVC018 09/08 A2980 RMK AO2 T00920078
Loading
Personal Weather Stations






























Interactive Weather Map New forecast layout! Learn more

10-Day Weather Forecast

Advertisements
Track Severe Weather on mobile